sensor_id;sensor_type;location;lat;lon;timestamp;pressure;altitude;pressure_sealevel;temperature;humidity
63715;BME280;49858;48.956;9.076;2024-02-15T00:00:48;99229.19;;;16.79;100.00
63715;BME280;49858;48.956;9.076;2024-02-15T00:03:18;99226.50;;;16.93;100.00
63715;BME280;49858;48.956;9.076;2024-02-15T00:05:50;99228.13;;;16.98;100.00
63715;BME280;49858;48.956;9.076;2024-02-15T00:08:19;99224.91;;;16.92;100.00
63715;BME280;49858;48.956;9.076;2024-02-15T00:10:47;99221.75;;;16.94;100.00
63715;BME280;49858;48.956;9.076;2024-02-15T00:13:15;99222.88;;;16.82;100.00
63715;BME280;49858;48.956;9.076;2024-02-15T00:15:44;99230.50;;;16.96;100.00
63715;BME280;49858;48.956;9.076;2024-02-15T00:18:15;99230.53;;;16.99;100.00
63715;BME280;49858;48.956;9.076;2024-02-15T00:20:44;99226.59;;;17.07;100.00
63715;BME280;49858;48.956;9.076;2024-02-15T00:23:13;99229.03;;;17.13;100.00
63715;BME280;49858;48.956;9.076;2024-02-15T00:25:43;99221.13;;;17.18;100.00
63715;BME280;49858;48.956;9.076;2024-02-15T00:28:11;99227.50;;;17.26;100.00
63715;BME280;49858;48.956;9.076;2024-02-15T00:30:40;99214.81;;;17.25;100.00
63715;BME280;49858;48.956;9.076;2024-02-15T00:33:08;99219.88;;;17.08;100.00
63715;BME280;49858;48.956;9.076;2024-02-15T00:35:37;99212.25;;;16.98;100.00
63715;BME280;49858;48.956;9.076;2024-02-15T00:38:05;99213.88;;;17.03;100.00
63715;BME280;49858;48.956;9.076;2024-02-15T00:40:35;99210.59;;;16.86;100.00
63715;BME280;49858;48.956;9.076;2024-02-15T00:43:03;99221.50;;;16.61;100.00
63715;BME280;49858;48.956;9.076;2024-02-15T00:45:31;99216.84;;;16.73;100.00
63715;BME280;49858;48.956;9.076;2024-02-15T00:47:59;99212.25;;;16.47;100.00
63715;BME280;49858;48.956;9.076;2024-02-15T00:50:27;99213.03;;;16.51;100.00
63715;BME280;49858;48.956;9.076;2024-02-15T00:52:56;99207.00;;;16.38;100.00
63715;BME280;49858;48.956;9.076;2024-02-15T00:55:23;99212.91;;;16.36;100.00
63715;BME280;49858;48.956;9.076;2024-02-15T00:57:53;99211.41;;;16.43;100.00
63715;BME280;49858;48.956;9.076;2024-02-15T01:00:21;99198.94;;;16.26;100.00
63715;BME280;49858;48.956;9.076;2024-02-15T01:02:48;99204.03;;;15.49;100.00
63715;BME280;49858;48.956;9.076;2024-02-15T01:05:17;99207.91;;;15.15;100.00
63715;BME280;49858;48.956;9.076;2024-02-15T01:07:45;99200.28;;;15.38;100.00
63715;BME280;49858;48.956;9.076;2024-02-15T01:10:15;99197.34;;;15.54;100.00
63715;BME280;49858;48.956;9.076;2024-02-15T01:12:43;99205.66;;;15.24;100.00
63715;BME280;49858;48.956;9.076;2024-02-15T01:15:12;99205.84;;;15.38;100.00
63715;BME280;49858;48.956;9.076;2024-02-15T01:17:42;99208.16;;;15.32;100.00
63715;BME280;49858;48.956;9.076;2024-02-15T01:20:13;99198.88;;;15.51;100.00
63715;BME280;49858;48.956;9.076;2024-02-15T01:22:42;99210.59;;;15.07;100.00
63715;BME280;49858;48.956;9.076;2024-02-15T01:25:11;99200.81;;;15.47;100.00
63715;BME280;49858;48.956;9.076;2024-02-15T01:27:39;99204.16;;;15.30;100.00
63715;BME280;49858;48.956;9.076;2024-02-15T01:30:07;99197.53;;;15.38;100.00
63715;BME280;49858;48.956;9.076;2024-02-15T01:32:38;99197.59;;;14.59;100.00
63715;BME280;49858;48.956;9.076;2024-02-15T01:35:09;99205.84;;;14.13;100.00
63715;BME280;49858;48.956;9.076;2024-02-15T01:37:37;99204.34;;;13.96;100.00
63715;BME280;49858;48.956;9.076;2024-02-15T01:40:06;99204.09;;;13.62;100.00
63715;BME280;49858;48.956;9.076;2024-02-15T01:42:34;99214.41;;;13.11;100.00
63715;BME280;49858;48.956;9.076;2024-02-15T01:45:03;99210.78;;;13.22;100.00
63715;BME280;49858;48.956;9.076;2024-02-15T01:47:31;99213.09;;;14.21;100.00
63715;BME280;49858;48.956;9.076;2024-02-15T01:50:01;99214.47;;;13.49;100.00
63715;BME280;49858;48.956;9.076;2024-02-15T01:52:30;99218.25;;;13.06;100.00
63715;BME280;49858;48.956;9.076;2024-02-15T01:54:58;99216.66;;;13.05;100.00
63715;BME280;49858;48.956;9.076;2024-02-15T01:57:27;99214.84;;;12.77;100.00
63715;BME280;49858;48.956;9.076;2024-02-15T01:59:55;99212.91;;;12.97;100.00
63715;BME280;49858;48.956;9.076;2024-02-15T02:02:28;99205.19;;;13.38;100.00
63715;BME280;49858;48.956;9.076;2024-02-15T02:05:01;99204.88;;;13.82;100.00
63715;BME280;49858;48.956;9.076;2024-02-15T02:07:30;99195.78;;;13.81;100.00
63715;BME280;49858;48.956;9.076;2024-02-15T02:10:02;99208.53;;;13.67;100.00
63715;BME280;49858;48.956;9.076;2024-02-15T02:12:32;99198.00;;;13.18;100.00
63715;BME280;49858;48.956;9.076;2024-02-15T02:15:01;99211.00;;;13.33;100.00
63715;BME280;49858;48.956;9.076;2024-02-15T02:17:30;99196.06;;;13.76;100.00
63715;BME280;49858;48.956;9.076;2024-02-15T02:19:57;99194.75;;;13.90;100.00
63715;BME280;49858;48.956;9.076;2024-02-15T02:22:27;99188.63;;;14.46;100.00
63715;BME280;49858;48.956;9.076;2024-02-15T02:25:00;99188.25;;;14.70;100.00
63715;BME280;49858;48.956;9.076;2024-02-15T02:27:31;99194.72;;;14.78;100.00
63715;BME280;49858;48.956;9.076;2024-02-15T02:30:00;99189.72;;;14.87;100.00
63715;BME280;49858;48.956;9.076;2024-02-15T02:32:28;99188.81;;;15.09;100.00
63715;BME280;49858;48.956;9.076;2024-02-15T02:34:56;99188.22;;;15.23;100.00
63715;BME280;49858;48.956;9.076;2024-02-15T02:37:25;99185.84;;;15.22;100.00
63715;BME280;49858;48.956;9.076;2024-02-15T02:39:53;99196.00;;;15.14;100.00
63715;BME280;49858;48.956;9.076;2024-02-15T02:42:22;99197.31;;;14.94;100.00
63715;BME280;49858;48.956;9.076;2024-02-15T02:44:50;99196.72;;;15.07;100.00
63715;BME280;49858;48.956;9.076;2024-02-15T02:47:17;99191.44;;;15.25;100.00
63715;BME280;49858;48.956;9.076;2024-02-15T02:49:45;99194.75;;;15.38;100.00
63715;BME280;49858;48.956;9.076;2024-02-15T02:52:13;99190.09;;;15.46;100.00
63715;BME280;49858;48.956;9.076;2024-02-15T02:54:41;99191.19;;;15.07;100.00
63715;BME280;49858;48.956;9.076;2024-02-15T02:57:09;99193.69;;;15.16;100.00
63715;BME280;49858;48.956;9.076;2024-02-15T02:59:38;99187.72;;;15.44;100.00
63715;BME280;49858;48.956;9.076;2024-02-15T03:02:07;99189.97;;;15.65;100.00
63715;BME280;49858;48.956;9.076;2024-02-15T03:04:35;99195.94;;;15.37;100.00
63715;BME280;49858;48.956;9.076;2024-02-15T03:07:05;99187.09;;;15.28;100.00
63715;BME280;49858;48.956;9.076;2024-02-15T03:09:33;99187.78;;;15.51;100.00
63715;BME280;49858;48.956;9.076;2024-02-15T03:12:04;99187.13;;;15.62;100.00
63715;BME280;49858;48.956;9.076;2024-02-15T03:14:32;99186.75;;;15.63;100.00
63715;BME280;49858;48.956;9.076;2024-02-15T03:17:03;99188.16;;;15.80;100.00
63715;BME280;49858;48.956;9.076;2024-02-15T03:19:32;99184.63;;;15.83;100.00
63715;BME280;49858;48.956;9.076;2024-02-15T03:22:00;99188.25;;;15.87;100.00
63715;BME280;49858;48.956;9.076;2024-02-15T03:24:28;99184.56;;;14.63;100.00
63715;BME280;49858;48.956;9.076;2024-02-15T03:26:55;99182.66;;;14.21;100.00
63715;BME280;49858;48.956;9.076;2024-02-15T03:29:23;99185.66;;;14.81;100.00
63715;BME280;49858;48.956;9.076;2024-02-15T03:31:51;99171.59;;;14.67;100.00
63715;BME280;49858;48.956;9.076;2024-02-15T03:34:21;99168.53;;;13.61;100.00
63715;BME280;49858;48.956;9.076;2024-02-15T03:36:51;99171.03;;;13.89;100.00
63715;BME280;49858;48.956;9.076;2024-02-15T03:39:20;99169.59;;;13.75;100.00
63715;BME280;49858;48.956;9.076;2024-02-15T03:41:50;99169.88;;;14.13;100.00
63715;BME280;49858;48.956;9.076;2024-02-15T03:44:20;99164.22;;;14.05;100.00
63715;BME280;49858;48.956;9.076;2024-02-15T03:46:48;99166.50;;;13.38;100.00
63715;BME280;49858;48.956;9.076;2024-02-15T03:49:18;99176.94;;;12.59;100.00
63715;BME280;49858;48.956;9.076;2024-02-15T03:51:48;99175.78;;;12.95;100.00
63715;BME280;49858;48.956;9.076;2024-02-15T03:54:15;99175.50;;;13.35;100.00
63715;BME280;49858;48.956;9.076;2024-02-15T03:56:47;99178.13;;;14.09;100.00
63715;BME280;49858;48.956;9.076;2024-02-15T03:59:18;99175.19;;;13.60;100.00
63715;BME280;49858;48.956;9.076;2024-02-15T04:01:51;99177.63;;;12.56;100.00
63715;BME280;49858;48.956;9.076;2024-02-15T04:04:20;99191.34;;;12.05;100.00
63715;BME280;49858;48.956;9.076;2024-02-15T04:06:50;99179.84;;;11.59;100.00
63715;BME280;49858;48.956;9.076;2024-02-15T04:09:19;99184.59;;;11.74;100.00
63715;BME280;49858;48.956;9.076;2024-02-15T04:11:47;99190.16;;;12.85;100.00
63715;BME280;49858;48.956;9.076;2024-02-15T04:14:19;99177.53;;;13.58;100.00
63715;BME280;49858;48.956;9.076;2024-02-15T04:16:47;99172.25;;;13.91;100.00
63715;BME280;49858;48.956;9.076;2024-02-15T04:19:15;99167.13;;;14.13;100.00
63715;BME280;49858;48.956;9.076;2024-02-15T04:21:47;99176.78;;;13.80;100.00
63715;BME280;49858;48.956;9.076;2024-02-15T04:24:18;99183.88;;;13.39;100.00
63715;BME280;49858;48.956;9.076;2024-02-15T04:26:48;99181.75;;;14.36;100.00
63715;BME280;49858;48.956;9.076;2024-02-15T04:29:16;99182.00;;;14.50;100.00
63715;BME280;49858;48.956;9.076;2024-02-15T04:31:44;99175.94;;;14.94;100.00
63715;BME280;49858;48.956;9.076;2024-02-15T04:34:16;99178.06;;;15.04;100.00
63715;BME280;49858;48.956;9.076;2024-02-15T04:36:46;99189.59;;;15.06;100.00
63715;BME280;49858;48.956;9.076;2024-02-15T04:39:16;99176.69;;;14.91;100.00
63715;BME280;49858;48.956;9.076;2024-02-15T04:41:51;99182.75;;;15.00;100.00
63715;BME280;49858;48.956;9.076;2024-02-15T04:44:20;99186.13;;;13.33;100.00
63715;BME280;49858;48.956;9.076;2024-02-15T04:46:48;99180.59;;;12.31;100.00
63715;BME280;49858;48.956;9.076;2024-02-15T04:49:16;99189.34;;;11.89;100.00
63715;BME280;49858;48.956;9.076;2024-02-15T04:51:44;99185.22;;;12.43;100.00
63715;BME280;49858;48.956;9.076;2024-02-15T04:54:12;99187.13;;;13.25;100.00
63715;BME280;49858;48.956;9.076;2024-02-15T04:56:40;99186.22;;;13.98;100.00
63715;BME280;49858;48.956;9.076;2024-02-15T04:59:10;99174.88;;;14.76;100.00
63715;BME280;49858;48.956;9.076;2024-02-15T05:01:42;99172.06;;;15.29;100.00
63715;BME280;49858;48.956;9.076;2024-02-15T05:04:11;99168.53;;;15.62;100.00
63715;BME280;49858;48.956;9.076;2024-02-15T05:06:40;99165.75;;;15.62;100.00
63715;BME280;49858;48.956;9.076;2024-02-15T05:09:08;99174.31;;;14.90;100.00
63715;BME280;49858;48.956;9.076;2024-02-15T05:11:37;99158.81;;;15.45;100.00
63715;BME280;49858;48.956;9.076;2024-02-15T05:14:09;99158.19;;;15.59;100.00
63715;BME280;49858;48.956;9.076;2024-02-15T05:16:38;99161.47;;;14.51;100.00
63715;BME280;49858;48.956;9.076;2024-02-15T05:19:08;99163.00;;;14.49;100.00
63715;BME280;49858;48.956;9.076;2024-02-15T05:21:38;99161.09;;;14.07;100.00
63715;BME280;49858;48.956;9.076;2024-02-15T05:24:07;99158.53;;;14.67;100.00
63715;BME280;49858;48.956;9.076;2024-02-15T05:26:35;99153.78;;;14.68;100.00
63715;BME280;49858;48.956;9.076;2024-02-15T05:29:03;99148.69;;;15.26;100.00
63715;BME280;49858;48.956;9.076;2024-02-15T05:31:32;99153.03;;;15.57;100.00
63715;BME280;49858;48.956;9.076;2024-02-15T05:34:01;99154.47;;;15.78;100.00
63715;BME280;49858;48.956;9.076;2024-02-15T05:36:30;99143.44;;;15.85;100.00
63715;BME280;49858;48.956;9.076;2024-02-15T05:38:58;99148.63;;;15.90;100.00
63715;BME280;49858;48.956;9.076;2024-02-15T05:41:26;99144.91;;;15.75;100.00
63715;BME280;49858;48.956;9.076;2024-02-15T05:43:54;99157.19;;;15.74;100.00
63715;BME280;49858;48.956;9.076;2024-02-15T05:46:22;99160.50;;;15.53;100.00
63715;BME280;49858;48.956;9.076;2024-02-15T05:48:51;99154.28;;;15.30;100.00
63715;BME280;49858;48.956;9.076;2024-02-15T05:51:19;99157.81;;;15.60;100.00
63715;BME280;49858;48.956;9.076;2024-02-15T05:53:47;99155.16;;;15.68;100.00
63715;BME280;49858;48.956;9.076;2024-02-15T05:56:16;99151.34;;;15.83;100.00
63715;BME280;49858;48.956;9.076;2024-02-15T05:58:44;99159.31;;;15.88;100.00
63715;BME280;49858;48.956;9.076;2024-02-15T06:01:12;99158.94;;;15.90;100.00
63715;BME280;49858;48.956;9.076;2024-02-15T06:03:40;99152.53;;;15.82;100.00
63715;BME280;49858;48.956;9.076;2024-02-15T06:06:12;99152.03;;;15.73;100.00
63715;BME280;49858;48.956;9.076;2024-02-15T06:08:40;99152.13;;;15.50;100.00
63715;BME280;49858;48.956;9.076;2024-02-15T06:11:08;99153.22;;;15.72;100.00
63715;BME280;49858;48.956;9.076;2024-02-15T06:13:37;99154.13;;;15.83;100.00
63715;BME280;49858;48.956;9.076;2024-02-15T06:16:05;99153.38;;;15.86;100.00
63715;BME280;49858;48.956;9.076;2024-02-15T06:18:36;99155.16;;;15.71;100.00
63715;BME280;49858;48.956;9.076;2024-02-15T06:21:05;99149.22;;;15.69;100.00
63715;BME280;49858;48.956;9.076;2024-02-15T06:23:34;99156.94;;;15.56;100.00
63715;BME280;49858;48.956;9.076;2024-02-15T06:26:04;99143.44;;;14.91;100.00
63715;BME280;49858;48.956;9.076;2024-02-15T06:28:31;99148.44;;;15.08;100.00
63715;BME280;49858;48.956;9.076;2024-02-15T06:31:17;99157.16;;;14.80;100.00
63715;BME280;49858;48.956;9.076;2024-02-15T06:34:02;99155.34;;;13.96;100.00
63715;BME280;49858;48.956;9.076;2024-02-15T06:36:49;99156.38;;;13.26;100.00
63715;BME280;49858;48.956;9.076;2024-02-15T06:39:36;99156.69;;;13.83;100.00
63715;BME280;49858;48.956;9.076;2024-02-15T06:42:12;99162.06;;;14.64;100.00
63715;BME280;49858;48.956;9.076;2024-02-15T06:44:41;99161.25;;;14.90;100.00
63715;BME280;49858;48.956;9.076;2024-02-15T06:47:09;99155.88;;;15.31;100.00
63715;BME280;49858;48.956;9.076;2024-02-15T06:49:38;99149.75;;;15.48;100.00
63715;BME280;49858;48.956;9.076;2024-02-15T06:52:07;99157.75;;;15.57;100.00
63715;BME280;49858;48.956;9.076;2024-02-15T06:54:37;99146.88;;;15.41;100.00
63715;BME280;49858;48.956;9.076;2024-02-15T06:57:05;99148.38;;;15.65;100.00
63715;BME280;49858;48.956;9.076;2024-02-15T06:59:33;99152.09;;;15.80;100.00
63715;BME280;49858;48.956;9.076;2024-02-15T07:02:02;99151.91;;;15.99;100.00
63715;BME280;49858;48.956;9.076;2024-02-15T07:04:31;99157.56;;;16.14;100.00
63715;BME280;49858;48.956;9.076;2024-02-15T07:07:00;99144.66;;;16.28;100.00
63715;BME280;49858;48.956;9.076;2024-02-15T07:09:29;99151.22;;;16.13;100.00
63715;BME280;49858;48.956;9.076;2024-02-15T07:11:58;99148.59;;;16.27;100.00
63715;BME280;49858;48.956;9.076;2024-02-15T07:14:26;99141.56;;;15.96;100.00
63715;BME280;49858;48.956;9.076;2024-02-15T07:16:55;99143.31;;;16.12;100.00
63715;BME280;49858;48.956;9.076;2024-02-15T07:19:25;99144.50;;;15.40;100.00
63715;BME280;49858;48.956;9.076;2024-02-15T07:21:54;99143.94;;;14.70;100.00
63715;BME280;49858;48.956;9.076;2024-02-15T07:24:23;99134.78;;;14.66;100.00
63715;BME280;49858;48.956;9.076;2024-02-15T07:26:53;99133.78;;;14.78;100.00
63715;BME280;49858;48.956;9.076;2024-02-15T07:29:23;99133.13;;;14.88;100.00
63715;BME280;49858;48.956;9.076;2024-02-15T07:31:52;99134.09;;;15.33;100.00
63715;BME280;49858;48.956;9.076;2024-02-15T07:34:20;99133.41;;;14.53;100.00
63715;BME280;49858;48.956;9.076;2024-02-15T07:36:50;99118.91;;;15.20;100.00
63715;BME280;49858;48.956;9.076;2024-02-15T07:39:18;99122.47;;;14.90;100.00
63715;BME280;49858;48.956;9.076;2024-02-15T07:41:51;99125.03;;;14.76;100.00
63715;BME280;49858;48.956;9.076;2024-02-15T07:44:19;99121.41;;;14.72;100.00
63715;BME280;49858;48.956;9.076;2024-02-15T07:46:48;99129.66;;;14.42;100.00
63715;BME280;49858;48.956;9.076;2024-02-15T07:49:17;99121.91;;;15.07;100.00
63715;BME280;49858;48.956;9.076;2024-02-15T07:51:45;99121.09;;;15.37;100.00
63715;BME280;49858;48.956;9.076;2024-02-15T07:54:18;99116.78;;;16.14;100.00
63715;BME280;49858;48.956;9.076;2024-02-15T07:56:47;99120.59;;;16.47;100.00
63715;BME280;49858;48.956;9.076;2024-02-15T07:59:16;99119.03;;;16.49;100.00
63715;BME280;49858;48.956;9.076;2024-02-15T08:01:44;99109.00;;;16.93;100.00
63715;BME280;49858;48.956;9.076;2024-02-15T08:04:15;99116.81;;;16.73;100.00
63715;BME280;49858;48.956;9.076;2024-02-15T08:06:44;99123.00;;;17.14;100.00
63715;BME280;49858;48.956;9.076;2024-02-15T08:09:12;99120.00;;;17.51;100.00
63715;BME280;49858;48.956;9.076;2024-02-15T08:11:41;99118.09;;;16.31;100.00
63715;BME280;49858;48.956;9.076;2024-02-15T08:14:09;99113.09;;;16.54;100.00
63715;BME280;49858;48.956;9.076;2024-02-15T08:16:40;99108.34;;;16.55;100.00
63715;BME280;49858;48.956;9.076;2024-02-15T08:19:08;99113.44;;;15.60;100.00
63715;BME280;49858;48.956;9.076;2024-02-15T08:21:39;99114.13;;;15.88;100.00
63715;BME280;49858;48.956;9.076;2024-02-15T08:24:08;99112.16;;;15.88;100.00
63715;BME280;49858;48.956;9.076;2024-02-15T08:26:37;99105.28;;;16.16;100.00
63715;BME280;49858;48.956;9.076;2024-02-15T08:29:06;99102.78;;;16.00;100.00
63715;BME280;49858;48.956;9.076;2024-02-15T08:31:33;99094.59;;;15.73;100.00
63715;BME280;49858;48.956;9.076;2024-02-15T08:34:02;99091.59;;;15.93;100.00
63715;BME280;49858;48.956;9.076;2024-02-15T08:36:32;99088.00;;;16.40;100.00
63715;BME280;49858;48.956;9.076;2024-02-15T08:39:02;99087.63;;;16.42;100.00
63715;BME280;49858;48.956;9.076;2024-02-15T08:41:31;99087.19;;;16.36;100.00
63715;BME280;49858;48.956;9.076;2024-02-15T08:43:59;99084.78;;;16.31;100.00
63715;BME280;49858;48.956;9.076;2024-02-15T08:46:28;99085.56;;;16.94;100.00
63715;BME280;49858;48.956;9.076;2024-02-15T08:48:56;99084.88;;;17.11;100.00
63715;BME280;49858;48.956;9.076;2024-02-15T08:51:24;99084.56;;;17.34;100.00
63715;BME280;49858;48.956;9.076;2024-02-15T08:53:52;99083.06;;;17.65;100.00
63715;BME280;49858;48.956;9.076;2024-02-15T08:56:21;99084.66;;;17.66;100.00
63715;BME280;49858;48.956;9.076;2024-02-15T08:58:50;99081.09;;;17.69;100.00
63715;BME280;49858;48.956;9.076;2024-02-15T09:01:18;99080.28;;;17.61;100.00
63715;BME280;49858;48.956;9.076;2024-02-15T09:03:46;99091.97;;;17.01;100.00
63715;BME280;49858;48.956;9.076;2024-02-15T09:06:14;99091.25;;;17.15;100.00
63715;BME280;49858;48.956;9.076;2024-02-15T09:08:42;99093.13;;;16.93;100.00
63715;BME280;49858;48.956;9.076;2024-02-15T09:11:10;99092.94;;;17.41;100.00
63715;BME280;49858;48.956;9.076;2024-02-15T09:13:40;99088.50;;;17.19;100.00
63715;BME280;49858;48.956;9.076;2024-02-15T09:16:08;99091.88;;;18.06;100.00
63715;BME280;49858;48.956;9.076;2024-02-15T09:18:38;99081.94;;;16.79;100.00
63715;BME280;49858;48.956;9.076;2024-02-15T09:21:12;99091.13;;;15.83;100.00
63715;BME280;49858;48.956;9.076;2024-02-15T09:23:41;99082.88;;;16.46;100.00
63715;BME280;49858;48.956;9.076;2024-02-15T09:26:09;99083.69;;;17.16;100.00
63715;BME280;49858;48.956;9.076;2024-02-15T09:28:41;99079.44;;;16.04;100.00
63715;BME280;49858;48.956;9.076;2024-02-15T09:31:08;99074.91;;;15.48;100.00
63715;BME280;49858;48.956;9.076;2024-02-15T09:33:38;99076.34;;;15.05;100.00
63715;BME280;49858;48.956;9.076;2024-02-15T09:36:06;99076.13;;;15.54;100.00
63715;BME280;49858;48.956;9.076;2024-02-15T09:38:34;99071.28;;;15.81;100.00
63715;BME280;49858;48.956;9.076;2024-02-15T09:41:02;99061.38;;;16.98;100.00
63715;BME280;49858;48.956;9.076;2024-02-15T09:43:35;99059.91;;;17.18;100.00
63715;BME280;49858;48.956;9.076;2024-02-15T09:46:04;99058.88;;;18.05;100.00
63715;BME280;49858;48.956;9.076;2024-02-15T09:48:34;99065.88;;;16.47;100.00
63715;BME280;49858;48.956;9.076;2024-02-15T09:51:02;99063.50;;;17.22;100.00
63715;BME280;49858;48.956;9.076;2024-02-15T09:53:31;99059.69;;;18.16;100.00
63715;BME280;49858;48.956;9.076;2024-02-15T09:55:59;99063.16;;;18.88;100.00
63715;BME280;49858;48.956;9.076;2024-02-15T09:58:31;99052.31;;;21.09;100.00
63715;BME280;49858;48.956;9.076;2024-02-15T10:01:05;99044.00;;;22.17;99.85
63715;BME280;49858;48.956;9.076;2024-02-15T10:03:37;99041.16;;;22.84;94.09
63715;BME280;49858;48.956;9.076;2024-02-15T10:06:07;99048.97;;;22.96;92.21
63715;BME280;49858;48.956;9.076;2024-02-15T10:08:35;99038.25;;;23.47;88.67
63715;BME280;49858;48.956;9.076;2024-02-15T10:11:08;99038.25;;;23.47;90.90
63715;BME280;49858;48.956;9.076;2024-02-15T10:13:37;99039.03;;;24.33;81.26
63715;BME280;49858;48.956;9.076;2024-02-15T10:16:17;99045.34;;;24.82;76.85
63715;BME280;49858;48.956;9.076;2024-02-15T10:18:46;99037.28;;;24.39;76.70
63715;BME280;49858;48.956;9.076;2024-02-15T10:21:25;99025.09;;;25.16;72.80
63715;BME280;49858;48.956;9.076;2024-02-15T10:24:04;99036.88;;;24.98;70.31
63715;BME280;49858;48.956;9.076;2024-02-15T10:26:33;99020.63;;;25.32;64.61
63715;BME280;49858;48.956;9.076;2024-02-15T10:29:07;99020.88;;;25.63;65.33
63715;BME280;49858;48.956;9.076;2024-02-15T10:31:39;99019.50;;;25.42;67.17
63715;BME280;49858;48.956;9.076;2024-02-15T10:34:08;99019.00;;;24.76;69.21
63715;BME280;49858;48.956;9.076;2024-02-15T10:36:36;99019.66;;;24.51;71.74
63715;BME280;49858;48.956;9.076;2024-02-15T10:39:12;99018.31;;;24.72;68.73
63715;BME280;49858;48.956;9.076;2024-02-15T10:41:45;99021.50;;;24.87;68.11
63715;BME280;49858;48.956;9.076;2024-02-15T10:44:16;99006.66;;;24.86;69.55
63715;BME280;49858;48.956;9.076;2024-02-15T10:46:48;99009.75;;;23.12;74.39
63715;BME280;49858;48.956;9.076;2024-02-15T10:49:21;99002.34;;;23.02;79.18
63715;BME280;49858;48.956;9.076;2024-02-15T10:51:52;99004.63;;;23.07;78.62
63715;BME280;49858;48.956;9.076;2024-02-15T10:54:35;98995.38;;;23.63;73.95
63715;BME280;49858;48.956;9.076;2024-02-15T10:57:09;98994.34;;;23.20;75.87
63715;BME280;49858;48.956;9.076;2024-02-15T10:59:38;98982.34;;;23.36;73.68
63715;BME280;49858;48.956;9.076;2024-02-15T11:02:31;98987.13;;;23.19;75.39
63715;BME280;49858;48.956;9.076;2024-02-15T11:05:03;98984.22;;;22.24;80.49
63715;BME280;49858;48.956;9.076;2024-02-15T11:07:37;98976.59;;;22.24;79.89
63715;BME280;49858;48.956;9.076;2024-02-15T11:10:07;98982.22;;;23.24;72.83
63715;BME280;49858;48.956;9.076;2024-02-15T11:12:38;98975.06;;;23.03;75.07
63715;BME280;49858;48.956;9.076;2024-02-15T11:15:08;98967.00;;;22.65;73.99
63715;BME280;49858;48.956;9.076;2024-02-15T11:17:47;98964.94;;;22.49;73.45
63715;BME280;49858;48.956;9.076;2024-02-15T11:20:48;98954.47;;;21.83;78.66
63715;BME280;49858;48.956;9.076;2024-02-15T11:23:26;98953.41;;;22.43;76.94
63715;BME280;49858;48.956;9.076;2024-02-15T11:26:04;98942.63;;;22.82;78.39
63715;BME280;49858;48.956;9.076;2024-02-15T11:28:49;98943.63;;;23.11;75.49
63715;BME280;49858;48.956;9.076;2024-02-15T11:31:52;98947.00;;;22.23;81.97
63715;BME280;49858;48.956;9.076;2024-02-15T11:34:43;98939.84;;;22.42;78.87
63715;BME280;49858;48.956;9.076;2024-02-15T11:37:49;98945.94;;;22.57;79.44
63715;BME280;49858;48.956;9.076;2024-02-15T11:40:20;98930.88;;;21.84;80.52
63715;BME280;49858;48.956;9.076;2024-02-15T11:42:51;98928.28;;;22.40;82.16
63715;BME280;49858;48.956;9.076;2024-02-15T11:45:20;98928.41;;;22.33;81.53
63715;BME280;49858;48.956;9.076;2024-02-15T11:47:49;98931.06;;;22.40;81.15
63715;BME280;49858;48.956;9.076;2024-02-15T11:50:21;98922.03;;;23.08;77.35
63715;BME280;49858;48.956;9.076;2024-02-15T11:52:51;98919.97;;;23.45;78.22
63715;BME280;49858;48.956;9.076;2024-02-15T11:55:20;98921.63;;;23.42;75.09
63715;BME280;49858;48.956;9.076;2024-02-15T11:57:55;98928.00;;;22.54;77.86
63715;BME280;49858;48.956;9.076;2024-02-15T12:00:29;98927.97;;;22.11;78.08
63715;BME280;49858;48.956;9.076;2024-02-15T12:03:15;98913.09;;;22.57;79.34
63715;BME280;49858;48.956;9.076;2024-02-15T12:06:03;98916.13;;;23.88;73.30
63715;BME280;49858;48.956;9.076;2024-02-15T12:08:51;98918.09;;;22.86;75.79
63715;BME280;49858;48.956;9.076;2024-02-15T12:11:33;98909.97;;;23.93;70.14
63715;BME280;49858;48.956;9.076;2024-02-15T12:14:19;98914.50;;;24.03;69.56
63715;BME280;49858;48.956;9.076;2024-02-15T12:17:06;98906.25;;;23.67;69.93
63715;BME280;49858;48.956;9.076;2024-02-15T12:19:52;98897.16;;;23.59;71.34
63715;BME280;49858;48.956;9.076;2024-02-15T12:22:26;98900.44;;;23.05;78.11
63715;BME280;49858;48.956;9.076;2024-02-15T12:24:55;98894.28;;;23.30;72.08
63715;BME280;49858;48.956;9.076;2024-02-15T12:27:23;98882.34;;;23.59;72.59
63715;BME280;49858;48.956;9.076;2024-02-15T12:29:54;98887.38;;;22.99;77.70
63715;BME280;49858;48.956;9.076;2024-02-15T12:32:23;98877.97;;;21.89;84.22
63715;BME280;49858;48.956;9.076;2024-02-15T12:34:51;98875.63;;;22.08;81.61
63715;BME280;49858;48.956;9.076;2024-02-15T12:37:20;98868.81;;;23.37;77.24
63715;BME280;49858;48.956;9.076;2024-02-15T12:39:49;98862.91;;;22.63;78.17
63715;BME280;49858;48.956;9.076;2024-02-15T12:42:17;98863.03;;;23.44;74.53
63715;BME280;49858;48.956;9.076;2024-02-15T12:44:46;98850.63;;;23.91;68.86
63715;BME280;49858;48.956;9.076;2024-02-15T12:47:22;98851.31;;;23.95;69.47
63715;BME280;49858;48.956;9.076;2024-02-15T12:49:51;98841.63;;;24.54;67.83
63715;BME280;49858;48.956;9.076;2024-02-15T12:52:33;98845.38;;;25.28;60.09
63715;BME280;49858;48.956;9.076;2024-02-15T12:55:14;98834.13;;;25.28;58.36
63715;BME280;49858;48.956;9.076;2024-02-15T12:57:44;98826.66;;;24.57;63.79
63715;BME280;49858;48.956;9.076;2024-02-15T13:00:17;98829.59;;;24.66;62.84
63715;BME280;49858;48.956;9.076;2024-02-15T13:02:46;98830.81;;;23.82;68.58
63715;BME280;49858;48.956;9.076;2024-02-15T13:05:16;98829.88;;;23.39;70.36
63715;BME280;49858;48.956;9.076;2024-02-15T13:07:46;98820.28;;;23.69;68.27
63715;BME280;49858;48.956;9.076;2024-02-15T13:10:16;98826.44;;;24.22;68.02